createdAt,value
2017-06-10T00:00:51.621Z,58.13
2017-06-10T00:01:51.529Z,57.93
2017-06-10T00:02:51.569Z,58.29
2017-06-10T00:03:51.610Z,58.42
2017-06-10T00:04:51.674Z,58.2
2017-06-10T00:05:51.688Z,57.75
2017-06-10T00:06:51.731Z,58.13
2017-06-10T00:07:51.769Z,58.03
2017-06-10T00:08:51.807Z,58.61
2017-06-10T00:09:51.849Z,57.84
2017-06-10T00:10:51.892Z,58.13
2017-06-10T00:11:51.926Z,58.13
2017-06-10T00:12:51.966Z,58.42
2017-06-10T00:13:52.009Z,58.51
2017-06-10T00:14:52.359Z,58.13
2017-06-10T00:15:52.085Z,58.32
2017-06-10T00:16:52.128Z,58.61
2017-06-10T00:17:52.171Z,58.39
2017-06-10T00:18:52.207Z,57.9
2017-06-10T00:19:52.250Z,58
2017-06-10T00:20:52.284Z,58.61
2017-06-10T00:21:52.335Z,58.2
2017-06-10T00:22:52.369Z,58.22
2017-06-10T00:23:52.604Z,58.29
2017-06-10T00:24:52.447Z,58.13
2017-06-10T00:25:52.484Z,58.22
2017-06-10T00:26:52.527Z,58.29
2017-06-10T00:27:52.565Z,58.51
2017-06-10T00:28:52.605Z,58.7
2017-06-10T00:29:52.642Z,58.99
2017-06-10T00:30:52.681Z,58.87
2017-06-10T00:31:52.724Z,58.58
2017-06-10T00:32:52.762Z,58.48
2017-06-10T00:33:53.112Z,58.58
2017-06-10T00:34:52.846Z,59.09
2017-06-10T00:35:52.885Z,58.7
2017-06-10T00:36:52.925Z,59.25
2017-06-10T00:37:52.963Z,58.99
2017-06-10T00:38:53.003Z,58.87
2017-06-10T00:39:53.044Z,59.06
2017-06-10T00:40:53.084Z,59.28
2017-06-10T00:41:53.124Z,59.47
2017-06-10T00:42:53.161Z,59.06
2017-06-10T00:43:53.201Z,59.25
2017-06-10T00:44:53.239Z,59.92
2017-06-10T00:45:53.285Z,60.02
2017-06-10T00:46:53.316Z,60.02
2017-06-10T00:47:53.362Z,59.73
2017-06-10T00:48:53.401Z,59.54
2017-06-10T00:49:53.445Z,59.73
2017-06-10T00:50:53.478Z,60.02
2017-06-10T00:51:53.525Z,60.11
2017-06-10T00:52:53.555Z,60.21
2017-06-10T00:53:53.599Z,60.4
2017-06-10T00:54:53.632Z,60.21
2017-06-10T00:55:53.677Z,60.4
2017-06-10T00:56:53.716Z,60.31
2017-06-10T00:57:53.751Z,60.21
2017-06-10T00:58:53.791Z,60.21
2017-06-10T00:59:53.836Z,60.6
2017-06-10T01:00:53.877Z,61.36
2017-06-10T01:01:53.914Z,61.27
2017-06-10T01:02:53.955Z,61.36
2017-06-10T01:03:53.991Z,61.08
2017-06-10T01:04:54.030Z,61.17
2017-06-10T01:05:54.071Z,60.88
2017-06-10T01:06:54.112Z,60.88
2017-06-10T01:07:54.149Z,60.98
2017-06-10T01:08:54.187Z,61.65
2017-06-10T01:09:54.232Z,61.24
2017-06-10T01:10:54.267Z,61.72
2017-06-10T01:11:54.306Z,61.84
2017-06-10T01:12:54.659Z,61.43
2017-06-10T01:13:54.390Z,61.43
2017-06-10T01:14:54.428Z,61.24
2017-06-10T01:15:54.467Z,62.01
2017-06-10T01:16:54.505Z,61.91
2017-06-10T01:17:54.547Z,61.91
2017-06-10T01:18:54.585Z,62.1
2017-06-10T01:19:54.625Z,61.72
2017-06-10T01:20:54.667Z,62.29
2017-06-10T01:21:54.704Z,62.77
2017-06-10T01:22:54.748Z,62.1
2017-06-10T01:23:54.784Z,62.29
2017-06-10T01:24:54.823Z,62.39
2017-06-10T01:25:54.859Z,62.48
2017-06-10T01:26:54.898Z,62.39
2017-06-10T01:27:54.938Z,62.39
2017-06-10T01:28:54.988Z,62.48
2017-06-10T01:29:55.018Z,62.01
2017-06-10T01:30:55.063Z,62.77
2017-06-10T01:31:55.095Z,63.16
2017-06-10T01:32:55.138Z,62.87
2017-06-10T01:33:55.179Z,62.96
2017-06-10T01:34:55.220Z,63.54
2017-06-10T01:35:55.260Z,63.25
2017-06-10T01:36:55.298Z,63.16
2017-06-10T01:37:55.331Z,63.35
2017-06-10T01:38:55.390Z,62.96
2017-06-10T01:39:55.418Z,63.06
2017-06-10T01:40:55.453Z,63.16
2017-06-10T01:41:55.489Z,63.06
2017-06-10T01:42:55.539Z,63.83
2017-06-10T01:43:55.571Z,63.73
2017-06-10T01:44:55.611Z,63.64
2017-06-10T01:45:55.650Z,63.6
2017-06-10T01:46:55.689Z,63.83
2017-06-10T01:47:55.725Z,63.83
2017-06-10T01:48:55.769Z,63.79
2017-06-10T01:49:55.806Z,63.51
2017-06-10T01:50:55.852Z,63.51
2017-06-10T01:51:55.889Z,64.09
2017-06-10T01:52:55.924Z,64.18
2017-06-10T01:53:55.960Z,63.79
2017-06-10T01:54:56.154Z,63.79
2017-06-10T01:55:56.042Z,64.09
2017-06-10T01:56:56.082Z,64.09
2017-06-10T01:57:56.118Z,63.99
2017-06-10T01:58:56.160Z,64.37
2017-06-10T01:59:56.194Z,64.18
2017-06-10T02:00:56.236Z,64.09
2017-06-10T02:01:56.279Z,64.09
2017-06-10T02:02:56.314Z,63.79
2017-06-10T02:03:56.353Z,63.79
2017-06-10T02:04:56.396Z,63.99
2017-06-10T02:05:56.433Z,63.99
2017-06-10T02:06:56.471Z,64.09
2017-06-10T02:07:56.822Z,64.37
2017-06-10T02:08:56.553Z,64.09
2017-06-10T02:09:56.594Z,64.56
2017-06-10T02:10:56.629Z,64.37
2017-06-10T02:11:56.666Z,64.66
2017-06-10T02:12:56.708Z,64.66
2017-06-10T02:13:56.749Z,64.66
2017-06-10T02:14:56.785Z,64.95
2017-06-10T02:15:56.824Z,64.92
2017-06-10T02:16:56.860Z,64.85
2017-06-10T02:17:56.902Z,65.01
2017-06-10T02:18:56.938Z,64.92
2017-06-10T02:19:56.979Z,64.72
2017-06-10T02:20:57.017Z,64.82
2017-06-10T02:21:57.058Z,65.01
2017-06-10T02:22:57.099Z,65.01
2017-06-10T02:23:57.133Z,65.59
2017-06-10T02:24:57.175Z,65.49
2017-06-10T02:25:57.213Z,65.68
2017-06-10T02:26:57.255Z,65.11
2017-06-10T02:27:57.293Z,65.39
2017-06-10T02:28:57.338Z,65.59
2017-06-10T02:29:57.370Z,65.3
2017-06-10T02:30:57.412Z,65.59
2017-06-10T02:31:57.450Z,65.78
2017-06-10T02:32:57.484Z,65.88
2017-06-10T02:33:57.526Z,65.97
2017-06-10T02:34:57.563Z,65.68
2017-06-10T02:35:57.601Z,65.88
2017-06-10T02:36:57.643Z,65.68
2017-06-10T02:37:57.678Z,66.35
2017-06-10T02:38:57.721Z,66.16
2017-06-10T02:39:57.757Z,66.51
2017-06-10T02:40:57.799Z,66.16
2017-06-10T02:41:57.839Z,66.06
2017-06-10T02:42:57.874Z,66.16
2017-06-10T02:43:57.914Z,66.16
2017-06-10T02:44:57.952Z,66.22
2017-06-10T02:45:57.991Z,66.71
2017-06-10T02:46:58.030Z,66.61
2017-06-10T02:47:58.070Z,66.61
2017-06-10T02:48:58.108Z,66.61
2017-06-10T02:49:58.144Z,66.89
2017-06-10T02:50:58.188Z,66.61
2017-06-10T02:51:58.228Z,66.8
2017-06-10T02:52:58.268Z,66.89
2017-06-10T02:53:58.305Z,66.32
2017-06-10T02:54:58.337Z,66.8
2017-06-10T02:55:58.376Z,66.89
2017-06-10T02:56:58.417Z,66.89
2017-06-10T02:57:58.463Z,66.71
2017-06-10T02:58:58.492Z,66.8
2017-06-10T02:59:58.535Z,67.18
2017-06-10T03:00:58.574Z,67.09
2017-06-10T03:01:58.613Z,67.38
2017-06-10T03:02:58.651Z,67.18
2017-06-10T03:03:58.688Z,67.85
2017-06-10T03:04:58.735Z,67.09
2017-06-10T03:05:58.764Z,67.47
2017-06-10T03:06:58.804Z,67.47
2017-06-10T03:07:58.845Z,67.95
2017-06-10T03:08:58.882Z,67.47
2017-06-10T03:09:58.923Z,67.66
2017-06-10T03:10:58.960Z,67.18
2017-06-10T03:11:58.996Z,68.33
2017-06-10T03:12:59.040Z,67.66
2017-06-10T03:13:59.073Z,68.24
2017-06-10T03:14:59.114Z,68.43
2017-06-10T03:15:59.152Z,68.52
2017-06-10T03:16:59.195Z,68.33
2017-06-10T03:17:59.233Z,68.59
2017-06-10T03:18:59.585Z,68.91
2017-06-10T03:19:59.313Z,68.14
2017-06-10T03:20:59.662Z,68.3
2017-06-10T03:21:59.387Z,68.78
2017-06-10T03:22:59.425Z,68.11
2017-06-10T03:23:59.461Z,67.91
2017-06-10T03:24:59.502Z,68.3
2017-06-10T03:25:59.541Z,68.49
2017-06-10T03:26:59.580Z,68.49
2017-06-10T03:27:59.622Z,68.59
2017-06-10T03:28:59.658Z,68.91
2017-06-10T03:29:59.703Z,68.68
2017-06-10T03:30:59.732Z,68.68
2017-06-10T03:31:59.768Z,68.59
2017-06-10T03:32:59.811Z,68.59
2017-06-10T03:33:59.845Z,68.87
2017-06-10T03:34:59.884Z,68.97
2017-06-10T03:35:59.923Z,68.78
2017-06-10T03:36:59.969Z,68.59
2017-06-10T03:38:00.006Z,68.78
2017-06-10T03:39:00.041Z,68.97
2017-06-10T03:40:00.078Z,69.17
2017-06-10T03:41:00.116Z,69.26
2017-06-10T03:42:00.159Z,69.45
2017-06-10T03:43:00.512Z,69.2
2017-06-10T03:44:00.242Z,69.48
2017-06-10T03:45:00.278Z,69.29
2017-06-10T03:46:00.314Z,69.29
2017-06-10T03:47:00.352Z,69.29
2017-06-10T03:48:00.390Z,68.85
2017-06-10T03:49:00.431Z,68.75
2017-06-10T03:50:00.474Z,69.04
2017-06-10T03:51:00.511Z,68.75
2017-06-10T03:52:00.555Z,68.37
2017-06-10T03:53:00.590Z,68.02
2017-06-10T03:54:00.627Z,68.88
2017-06-10T03:55:00.675Z,68.4
2017-06-10T03:56:00.707Z,68.5
2017-06-10T03:57:00.750Z,67.86
2017-06-10T03:58:00.790Z,67.96
2017-06-10T03:59:00.828Z,68.05
2017-06-10T04:00:00.872Z,67.76
2017-06-10T04:01:00.910Z,67.13
2017-06-10T04:02:00.953Z,67.03
2017-06-10T04:03:00.991Z,67.22
2017-06-10T04:04:01.033Z,66.87
2017-06-10T04:05:01.075Z,66.87
2017-06-10T04:06:01.131Z,66.3
2017-06-10T04:07:01.157Z,66.39
2017-06-10T04:08:01.199Z,65.62
2017-06-10T04:09:01.241Z,65.62
2017-06-10T04:10:01.287Z,64.79
2017-06-10T04:11:01.332Z,65.08
2017-06-10T04:12:01.366Z,64.6
2017-06-10T04:13:01.409Z,64.5
2017-06-10T04:14:01.477Z,63.83
2017-06-10T04:15:01.491Z,63.57
2017-06-10T04:16:01.533Z,63.38
2017-06-10T04:17:01.576Z,62.9
2017-06-10T04:18:01.621Z,62.99
2017-06-10T04:19:01.660Z,62.71
2017-06-10T04:20:01.705Z,62.38
2017-06-10T04:21:01.747Z,62.29
2017-06-10T04:22:01.790Z,62.48
2017-06-10T04:23:01.827Z,62.48
2017-06-10T04:24:01.873Z,62.48
2017-06-10T04:25:01.911Z,62.19
2017-06-10T04:26:01.979Z,62
2017-06-10T04:27:01.999Z,61.52
2017-06-10T04:28:02.349Z,61.52
2017-06-10T04:29:02.083Z,61.91
2017-06-10T04:30:02.119Z,62.1
2017-06-10T04:31:02.166Z,61.11
2017-06-10T04:32:02.202Z,61.4
2017-06-10T04:33:02.246Z,61.87
2017-06-10T04:34:02.287Z,61.87
2017-06-10T04:35:02.327Z,61.87
2017-06-10T04:36:02.592Z,62.07
2017-06-10T04:37:02.405Z,62.61
2017-06-10T04:38:02.451Z,62.55
2017-06-10T04:39:02.493Z,62.35
2017-06-10T04:40:02.532Z,62.07
2017-06-10T04:41:02.573Z,62.55
2017-06-10T04:42:02.613Z,62.29
2017-06-10T04:43:02.659Z,62.77
2017-06-10T04:44:02.694Z,62
2017-06-10T04:45:02.738Z,62.1
2017-06-10T04:46:02.779Z,62.51
2017-06-10T04:47:02.820Z,61.46
2017-06-10T04:48:02.861Z,61.46
2017-06-10T04:49:02.909Z,61.55
2017-06-10T04:50:02.944Z,61
2017-06-10T04:51:02.986Z,60.62
2017-06-10T04:52:03.330Z,60.52
2017-06-10T04:53:03.374Z,60.52
2017-06-10T04:54:03.112Z,60.72
2017-06-10T04:55:03.154Z,60.49
2017-06-10T04:56:03.196Z,60.39
2017-06-10T04:57:03.236Z,60.01
2017-06-10T04:58:03.291Z,60.3
2017-06-10T04:59:03.316Z,60.01
2017-06-10T05:00:03.363Z,60.39
2017-06-10T05:01:03.403Z,60.11
2017-06-10T05:02:03.449Z,60.21
2017-06-10T05:03:03.486Z,60.21
2017-06-10T05:04:03.528Z,60.39
2017-06-10T05:05:03.569Z,60.11
2017-06-10T05:06:03.611Z,60.88
2017-06-10T05:07:03.649Z,60.59
2017-06-10T05:08:03.692Z,60.33
2017-06-10T05:09:03.731Z,60.24
2017-06-10T05:10:03.775Z,59.66
2017-06-10T05:11:03.814Z,59.56
2017-06-10T05:12:03.855Z,59.47
2017-06-10T05:13:03.902Z,59.27
2017-06-10T05:14:03.945Z,59.27
2017-06-10T05:15:03.980Z,59.75
2017-06-10T05:16:04.027Z,59.27
2017-06-10T05:17:04.065Z,59.2
2017-06-10T05:18:04.109Z,59.27
2017-06-10T05:19:04.152Z,59.17
2017-06-10T05:20:04.197Z,58.89
2017-06-10T05:21:04.237Z,58.79
2017-06-10T05:22:04.276Z,59.08
2017-06-10T05:23:04.318Z,59.37
2017-06-10T05:24:04.360Z,59.47
2017-06-10T05:25:04.403Z,59.37
2017-06-10T05:26:04.438Z,59.17
2017-06-10T05:27:04.482Z,59.27
2017-06-10T05:28:04.523Z,59.66
2017-06-10T05:29:04.892Z,59.56
2017-06-10T05:30:04.609Z,59.56
2017-06-10T05:31:04.649Z,59.27
2017-06-10T05:32:04.686Z,59.56
2017-06-10T05:33:04.735Z,59.37
2017-06-10T05:34:04.774Z,59.27
2017-06-10T05:35:04.815Z,59.15
2017-06-10T05:36:04.856Z,60.14
2017-06-10T05:37:04.897Z,59.72
2017-06-10T05:38:04.940Z,59.66
2017-06-10T05:39:04.983Z,60.14
2017-06-10T05:40:05.020Z,60.24
2017-06-10T05:41:05.074Z,60.55
2017-06-10T05:42:05.104Z,60.36
2017-06-10T05:43:05.152Z,60.3
2017-06-10T05:44:05.194Z,60.13
2017-06-10T05:45:05.569Z,60.26
2017-06-10T05:46:05.319Z,59.13
2017-06-10T05:47:05.326Z,58.48
2017-06-10T05:48:05.371Z,57.93
2017-06-10T05:49:05.418Z,58.06
2017-06-10T05:50:05.465Z,57.41
2017-06-10T05:51:05.513Z,56.95
2017-06-10T05:52:05.564Z,56.11
2017-06-10T05:53:05.609Z,55.24
2017-06-10T05:54:05.658Z,54.79
2017-06-10T05:55:05.701Z,53.65
2017-06-10T05:56:05.750Z,52.68
2017-06-10T05:57:05.804Z,51.64
2017-06-10T05:58:05.853Z,51.47
2017-06-10T05:59:05.902Z,50.6
2017-06-10T06:00:05.948Z,49.73
2017-06-10T06:01:06.000Z,49.17
2017-06-10T06:02:06.050Z,48.78
2017-06-10T06:03:06.098Z,47.93
2017-06-10T06:04:06.148Z,47.74
2017-06-10T06:05:06.198Z,47.38
2017-06-10T06:06:06.252Z,46.89
2017-06-10T06:07:06.306Z,46.23
2017-06-10T06:08:06.451Z,45.55
2017-06-10T06:09:06.414Z,44.89
2017-06-10T06:10:06.457Z,44.02
2017-06-10T06:11:06.510Z,43.73
2017-06-10T06:12:06.558Z,43.73
2017-06-10T06:13:06.610Z,42.76
2017-06-10T06:14:06.666Z,42.39
2017-06-10T06:15:06.717Z,42.39
2017-06-10T06:16:06.768Z,42.02
2017-06-10T06:17:06.824Z,42.31
2017-06-10T06:18:06.873Z,40.75
2017-06-10T06:19:06.928Z,40.88
2017-06-10T06:20:06.980Z,41.06
2017-06-10T06:21:07.032Z,39.72
2017-06-10T06:22:07.090Z,39.14
2017-06-10T06:23:07.145Z,39.14
2017-06-10T06:24:07.196Z,39.04
2017-06-10T06:25:07.252Z,38.38
2017-06-10T06:26:07.304Z,38.48
2017-06-10T06:27:07.355Z,37.81
2017-06-10T06:28:07.407Z,37.71
2017-06-10T06:29:07.462Z,37.23
2017-06-10T06:30:07.521Z,37.35
2017-06-10T06:31:07.575Z,36.96
2017-06-10T06:32:07.632Z,36.86
2017-06-10T06:33:07.682Z,36.58
2017-06-10T06:34:07.737Z,36.39
2017-06-10T06:35:07.791Z,36.39
2017-06-10T06:36:07.845Z,36.02
2017-06-10T06:37:07.901Z,35.43
2017-06-10T06:38:07.955Z,35.25
2017-06-10T06:39:08.013Z,34.96
2017-06-10T06:40:08.063Z,34.78
2017-06-10T06:41:08.117Z,34.19
2017-06-10T06:42:08.178Z,33.8
2017-06-10T06:43:08.231Z,33.89
2017-06-10T06:44:08.284Z,33.5
2017-06-10T06:45:08.337Z,33.2
2017-06-10T06:46:08.395Z,33.2
2017-06-10T06:47:08.450Z,33.11
2017-06-10T06:48:08.508Z,33.02
2017-06-10T06:49:08.562Z,33.31
2017-06-10T06:50:08.615Z,32.63
2017-06-10T06:51:08.672Z,32.55
2017-06-10T06:52:08.726Z,32.07
2017-06-10T06:53:08.784Z,32.27
2017-06-10T06:54:08.836Z,32.17
2017-06-10T06:55:09.213Z,31.78
2017-06-10T06:56:08.963Z,31.41
2017-06-10T06:57:09.003Z,31.13
2017-06-10T06:58:09.062Z,30.83
2017-06-10T06:59:09.117Z,30.25
2017-06-10T07:00:09.179Z,29.75
2017-06-10T07:01:09.234Z,29.08
2017-06-10T07:02:09.290Z,28.97
2017-06-10T07:03:09.345Z,28.88
2017-06-10T07:04:09.409Z,28.78
2017-06-10T07:05:09.458Z,29.27
2017-06-10T07:06:09.511Z,28.78
2017-06-10T07:07:09.568Z,28.78
2017-06-10T07:08:09.627Z,28.99
2017-06-10T07:09:09.686Z,28.69
2017-06-10T07:10:09.753Z,27.91
2017-06-10T07:11:09.796Z,27.63
2017-06-10T07:12:09.850Z,27.44
2017-06-10T07:13:09.907Z,27.34
2017-06-10T07:14:09.968Z,27.06
2017-06-10T07:15:10.024Z,26.96
2017-06-10T07:16:10.386Z,26.96
2017-06-10T07:17:10.140Z,26.96
2017-06-10T07:18:10.198Z,26.56
2017-06-10T07:19:10.256Z,26.56
2017-06-10T07:20:10.309Z,26.58
2017-06-10T07:21:10.366Z,26.38
2017-06-10T07:22:10.426Z,26.09
2017-06-10T07:23:10.481Z,25.9
2017-06-10T07:24:10.542Z,26.2
2017-06-10T07:25:10.599Z,25.81
2017-06-10T07:26:10.968Z,25.42
2017-06-10T07:27:10.715Z,25.42
2017-06-10T07:28:10.767Z,25.33
2017-06-10T07:29:10.830Z,25.23
2017-06-10T07:30:10.887Z,25.13
2017-06-10T07:31:10.939Z,25.03
2017-06-10T07:32:11.003Z,25.03
2017-06-10T07:33:11.061Z,25.03
2017-06-10T07:34:11.123Z,25.04
2017-06-10T07:35:11.173Z,24.55
2017-06-10T07:36:11.234Z,24.36
2017-06-10T07:37:11.290Z,24.06
2017-06-10T07:38:11.348Z,23.96
2017-06-10T07:39:11.406Z,23.68
2017-06-10T07:40:11.461Z,23.19
2017-06-10T07:41:11.520Z,23.57
2017-06-10T07:42:11.573Z,23.36
2017-06-10T07:43:11.643Z,23.56
2017-06-10T07:44:11.687Z,23.66
2017-06-10T07:45:11.751Z,23.85
2017-06-10T07:46:11.805Z,23.95
2017-06-10T07:47:11.868Z,23.67
2017-06-10T07:48:11.919Z,23.47
2017-06-10T07:49:11.980Z,23.29
2017-06-10T07:50:12.035Z,22.99
2017-06-10T07:51:12.092Z,23.4
2017-06-10T07:52:12.157Z,23
2017-06-10T07:53:12.211Z,22.81
2017-06-10T07:54:12.268Z,22.89
2017-06-10T07:55:12.320Z,21.91
2017-06-10T07:56:12.383Z,21.81
2017-06-10T07:57:12.437Z,21.9
2017-06-10T07:58:12.491Z,21.99
2017-06-10T07:59:12.550Z,22.08
2017-06-10T08:00:12.599Z,22.06
2017-06-10T08:01:12.662Z,22.35
2017-06-10T08:02:12.712Z,22.92
2017-06-10T08:03:12.765Z,23.02
2017-06-10T08:04:12.819Z,23.02
2017-06-10T08:05:12.878Z,23.7
2017-06-10T08:06:12.932Z,23.7
2017-06-10T08:07:12.986Z,23.71
2017-06-10T08:08:13.042Z,23.72
2017-06-10T08:09:13.098Z,24.02
2017-06-10T08:10:13.155Z,23.63
2017-06-10T08:11:13.212Z,23.45
2017-06-10T08:12:13.265Z,23.45
2017-06-10T08:13:13.327Z,22.97
2017-06-10T08:14:13.378Z,22.98
2017-06-10T08:15:13.434Z,22.89
2017-06-10T08:16:13.800Z,22.41
2017-06-10T08:17:13.547Z,21.81
2017-06-10T08:18:13.605Z,22.12
2017-06-10T08:19:13.813Z,22.02
2017-06-10T08:20:13.718Z,21.14
2017-06-10T08:21:13.773Z,20.75
2017-06-10T08:22:13.858Z,20.93
2017-06-10T08:23:13.887Z,20.62
2017-06-10T08:24:13.945Z,20.82
2017-06-10T08:25:14.004Z,21.22
2017-06-10T08:26:14.056Z,21.12
2017-06-10T08:27:14.118Z,21.22
2017-06-10T08:28:14.171Z,21.22
2017-06-10T08:29:14.226Z,21.12
2017-06-10T08:30:14.283Z,20.73
2017-06-10T08:31:14.339Z,20.93
2017-06-10T08:32:14.396Z,20.93
2017-06-10T08:33:14.472Z,20.82
2017-06-10T08:34:14.510Z,21.22
2017-06-10T08:35:14.564Z,21.4
2017-06-10T08:36:14.624Z,21.98
2017-06-10T08:37:14.675Z,21.78
2017-06-10T08:38:14.734Z,21.78
2017-06-10T08:39:14.790Z,21.8
2017-06-10T08:40:14.843Z,22
2017-06-10T08:41:14.901Z,21.8
2017-06-10T08:42:14.956Z,21.12
2017-06-10T08:43:15.014Z,21.33
2017-06-10T08:44:15.071Z,21.12
2017-06-10T08:45:15.124Z,21.33
2017-06-10T08:46:15.179Z,20.62
2017-06-10T08:47:15.236Z,21.02
2017-06-10T08:48:15.286Z,21.3
2017-06-10T08:49:15.345Z,21
2017-06-10T08:50:15.400Z,21.48
2017-06-10T08:51:15.454Z,21.96
2017-06-10T08:52:15.507Z,21.66
2017-06-10T08:53:15.560Z,22.33
2017-06-10T08:54:15.612Z,22.81
2017-06-10T08:55:15.668Z,22.91
2017-06-10T08:56:15.720Z,22.91
2017-06-10T08:57:15.773Z,23.21
2017-06-10T08:58:15.827Z,23.5
2017-06-10T08:59:15.881Z,23.21
2017-06-10T09:00:15.938Z,23.02
2017-06-10T09:01:15.991Z,23.12
2017-06-10T09:02:16.050Z,23.02
2017-06-10T09:03:16.099Z,23.11
2017-06-10T09:04:16.151Z,23.11
2017-06-10T09:05:16.202Z,22.61
2017-06-10T09:06:16.257Z,22.99
2017-06-10T09:07:16.359Z,23.08
2017-06-10T09:08:16.358Z,23.85
2017-06-10T09:09:16.413Z,24.03
2017-06-10T09:10:16.477Z,24.32
2017-06-10T09:11:16.512Z,24.71
2017-06-10T09:12:16.559Z,25.07
2017-06-10T09:13:16.611Z,25.56
2017-06-10T09:14:16.661Z,25.84
2017-06-10T09:15:16.747Z,26.32
2017-06-10T09:16:16.767Z,26.52
2017-06-10T09:17:16.811Z,26.9
2017-06-10T09:18:16.864Z,27.09
2017-06-10T09:19:16.907Z,27.18
2017-06-10T09:20:16.961Z,27.66
2017-06-10T09:21:17.007Z,28.33
2017-06-10T09:22:17.062Z,28.04
2017-06-10T09:23:17.105Z,28.43
2017-06-10T09:24:17.153Z,28.7
2017-06-10T09:25:17.203Z,28.61
2017-06-10T09:26:17.249Z,28.9
2017-06-10T09:27:17.295Z,29.18
2017-06-10T09:28:17.346Z,29.28
2017-06-10T09:29:17.398Z,30.05
2017-06-10T09:30:17.443Z,30.04
2017-06-10T09:31:17.489Z,30.33
2017-06-10T09:32:17.534Z,30.52
2017-06-10T09:33:17.585Z,30.93
2017-06-10T09:34:17.633Z,31.03
2017-06-10T09:35:17.686Z,31.04
2017-06-10T09:36:17.736Z,30.57
2017-06-10T09:37:17.783Z,30.47
2017-06-10T09:38:18.154Z,30.57
2017-06-10T09:39:17.878Z,30.57
2017-06-10T09:40:17.930Z,30.68
2017-06-10T09:41:17.975Z,30.57
2017-06-10T09:42:18.025Z,30.57
2017-06-10T09:43:18.074Z,30.57
2017-06-10T09:44:18.124Z,30.67
2017-06-10T09:45:18.176Z,30.96
2017-06-10T09:46:18.532Z,30.87
2017-06-10T09:47:18.276Z,31.17
2017-06-10T09:48:18.324Z,30.98
2017-06-10T09:49:18.375Z,30.7
2017-06-10T09:50:18.429Z,30.52
2017-06-10T09:51:18.785Z,30.44
2017-06-10T09:52:18.531Z,30.26
2017-06-10T09:53:18.582Z,30.37
2017-06-10T09:54:18.640Z,29.88
2017-06-10T09:55:18.692Z,28.53
2017-06-10T09:56:18.748Z,28.43
2017-06-10T09:57:18.802Z,28.54
2017-06-10T09:58:18.857Z,28.05
2017-06-10T09:59:18.908Z,27.66
2017-06-10T10:00:18.974Z,27.48
2017-06-10T10:01:19.023Z,26.7
2017-06-10T10:02:19.074Z,26.4
2017-06-10T10:03:19.140Z,26.6
2017-06-10T10:04:19.190Z,26.11
2017-06-10T10:05:19.245Z,25.82
2017-06-10T10:06:19.302Z,25.52
2017-06-10T10:07:19.357Z,25.62
2017-06-10T10:08:19.415Z,25.61
2017-06-10T10:09:19.780Z,25.51
2017-06-10T10:10:19.522Z,25.51
2017-06-10T10:11:19.576Z,25.4
2017-06-10T10:12:19.629Z,25.11
2017-06-10T10:13:19.681Z,24.91
2017-06-10T10:14:19.739Z,24.62
2017-06-10T10:15:19.791Z,24.9
2017-06-10T10:16:19.843Z,24.8
2017-06-10T10:17:19.898Z,25.2
2017-06-10T10:18:19.950Z,25.37
2017-06-10T10:19:20.005Z,25.96
2017-06-10T10:20:20.056Z,25.26
2017-06-10T10:21:20.106Z,25.56
2017-06-10T10:22:20.160Z,25.36
2017-06-10T10:23:20.223Z,25.54
2017-06-10T10:24:20.266Z,25.43
2017-06-10T10:25:20.310Z,25.53
2017-06-10T10:26:20.362Z,25.81
2017-06-10T10:27:20.413Z,26.4
2017-06-10T10:28:20.462Z,26.5
2017-06-10T10:29:20.513Z,26.39
2017-06-10T10:30:20.561Z,26.29
2017-06-10T10:31:20.608Z,26.95
2017-06-10T10:32:20.658Z,26.95
2017-06-10T10:33:20.708Z,27.05
2017-06-10T10:34:20.754Z,27.04
2017-06-10T10:35:20.803Z,27.33
2017-06-10T10:36:20.856Z,27.53
2017-06-10T10:37:20.915Z,27.62
2017-06-10T10:38:20.957Z,28.3
2017-06-10T10:39:21.004Z,28.3
2017-06-10T10:40:21.048Z,28.5
2017-06-10T10:41:21.103Z,28.2
2017-06-10T10:42:21.456Z,28.4
2017-06-10T10:43:21.199Z,28.69
2017-06-10T10:44:21.249Z,28.99
2017-06-10T10:45:21.298Z,28.79
2017-06-10T10:46:21.350Z,28.99
2017-06-10T10:47:21.396Z,29.36
2017-06-10T10:48:21.444Z,29.36
2017-06-10T10:49:21.494Z,29.47
2017-06-10T10:50:21.538Z,29.85
2017-06-10T10:51:21.591Z,29.36
2017-06-10T10:52:21.640Z,29.75
2017-06-10T10:53:21.688Z,29.94
2017-06-10T10:54:21.739Z,29.65
2017-06-10T10:55:21.789Z,30.04
2017-06-10T10:56:21.830Z,29.85
2017-06-10T10:57:21.881Z,29.85
2017-06-10T10:58:21.927Z,29.94
2017-06-10T10:59:22.089Z,29.83
2017-06-10T11:00:22.029Z,29.93
2017-06-10T11:01:22.087Z,29.75
2017-06-10T11:02:22.118Z,29.65
2017-06-10T11:03:22.172Z,29.26
2017-06-10T11:04:22.249Z,29.55
2017-06-10T11:05:22.274Z,29.26
2017-06-10T11:06:22.316Z,29.75
2017-06-10T11:07:22.369Z,29.16
2017-06-10T11:08:22.427Z,29.55
2017-06-10T11:09:22.473Z,29.16
2017-06-10T11:10:22.515Z,29.26
2017-06-10T11:11:22.560Z,29.26
2017-06-10T11:12:22.607Z,29.06
2017-06-10T11:13:22.652Z,29.06
2017-06-10T11:14:22.705Z,29.06
2017-06-10T11:15:22.752Z,28.88
2017-06-10T11:16:22.797Z,28.58
2017-06-10T11:17:22.848Z,28.58
2017-06-10T11:18:22.900Z,28.66
2017-06-10T11:19:22.940Z,28.47
2017-06-10T11:20:22.991Z,28.47
2017-06-10T11:21:23.038Z,28.66
2017-06-10T11:22:23.093Z,28.76
2017-06-10T11:23:23.131Z,28.57
2017-06-10T11:24:23.184Z,28.86
2017-06-10T11:25:23.233Z,28.86
2017-06-10T11:26:23.288Z,29.05
2017-06-10T11:27:23.323Z,29.35
2017-06-10T11:28:23.375Z,29.05
2017-06-10T11:29:23.417Z,29.05
2017-06-10T11:30:23.470Z,28.86
2017-06-10T11:31:23.520Z,28.76
2017-06-10T11:32:23.559Z,28.96
2017-06-10T11:33:23.611Z,28.86
2017-06-10T11:34:23.656Z,28.96
2017-06-10T11:35:24.155Z,29.05
2017-06-10T11:36:23.754Z,29.25
2017-06-10T11:37:23.797Z,29.35
2017-06-10T11:38:23.849Z,29.35
2017-06-10T11:39:23.927Z,29.35
2017-06-10T11:40:23.940Z,29.54
2017-06-10T11:41:23.988Z,29.25
2017-06-10T11:42:24.030Z,29.44
2017-06-10T11:43:24.085Z,29.64
2017-06-10T11:44:24.128Z,29.44
2017-06-10T11:45:24.177Z,29.36
2017-06-10T11:46:24.224Z,29.75
2017-06-10T11:47:24.321Z,29.65
2017-06-10T11:48:24.316Z,29.55
2017-06-10T11:49:24.363Z,30.04
2017-06-10T11:50:24.450Z,30.22
2017-06-10T11:51:24.768Z,30.14
2017-06-10T11:52:24.509Z,29.83
2017-06-10T11:53:24.555Z,30.32
2017-06-10T11:54:24.600Z,30.02
2017-06-10T11:55:24.646Z,30.61
2017-06-10T11:56:24.692Z,30.02
2017-06-10T11:57:25.053Z,30.41
2017-06-10T11:58:24.786Z,29.83
2017-06-10T11:59:24.835Z,29.83
2017-06-10T12:00:24.887Z,29.54
2017-06-10T12:01:24.927Z,29.54
2017-06-10T12:02:24.973Z,29.91
2017-06-10T12:03:25.023Z,30.11
2017-06-10T12:04:25.070Z,30.3
2017-06-10T12:05:25.115Z,30.69
2017-06-10T12:06:25.486Z,30.11
2017-06-10T12:07:25.208Z,30.21
2017-06-10T12:08:25.254Z,30.4
2017-06-10T12:09:25.308Z,30.69
2017-06-10T12:10:25.349Z,30.69
2017-06-10T12:11:25.395Z,30.98
2017-06-10T12:12:25.756Z,31.08
2017-06-10T12:13:25.818Z,31.08
2017-06-10T12:14:25.533Z,31.27
2017-06-10T12:15:25.576Z,31.27
2017-06-10T12:16:25.627Z,31.37
2017-06-10T12:17:25.673Z,31.66
2017-06-10T12:18:25.723Z,31.27
2017-06-10T12:19:25.761Z,31.08
2017-06-10T12:20:25.813Z,30.87
2017-06-10T12:21:25.858Z,31.07
2017-06-10T12:22:25.902Z,31.16
2017-06-10T12:23:26.260Z,31.26
2017-06-10T12:24:25.993Z,31.35
2017-06-10T12:25:26.035Z,31.45
2017-06-10T12:26:26.090Z,31.65
2017-06-10T12:27:26.132Z,31.65
2017-06-10T12:28:26.174Z,31.92
2017-06-10T12:29:26.223Z,31.63
2017-06-10T12:30:26.272Z,31.92
2017-06-10T12:31:26.348Z,32.02
2017-06-10T12:32:26.360Z,32.12
2017-06-10T12:33:26.405Z,32.12
2017-06-10T12:34:26.585Z,32.12
2017-06-10T12:35:26.500Z,32.41
2017-06-10T12:36:26.545Z,32.5
2017-06-10T12:37:26.590Z,32.12
2017-06-10T12:38:26.633Z,32.42
2017-06-10T12:39:26.684Z,32.13
2017-06-10T12:40:26.726Z,31.82
2017-06-10T12:41:26.771Z,31.44
2017-06-10T12:42:26.817Z,31.53
2017-06-10T12:43:26.859Z,31.53
2017-06-10T12:44:26.910Z,31.44
2017-06-10T12:45:26.953Z,31.53
2017-06-10T12:46:27.001Z,31.24
2017-06-10T12:47:27.043Z,31.53
2017-06-10T12:48:27.103Z,31.63
2017-06-10T12:49:27.134Z,31.63
2017-06-10T12:50:27.182Z,31.44
2017-06-10T12:51:27.221Z,31.53
2017-06-10T12:52:27.274Z,31.63
2017-06-10T12:53:27.311Z,31.71
2017-06-10T12:54:27.364Z,32.02
2017-06-10T12:55:27.402Z,31.92
2017-06-10T12:56:27.453Z,31.91